sensor_id;sensor_type;location;lat;lon;timestamp;P1;durP1;ratioP1;P2;durP2;ratioP2
9924;SDS011;5001;51.674;7.868;2024-03-25T00:01:41;22.00;;;17.53;;
9924;SDS011;5001;51.674;7.868;2024-03-25T00:04:07;18.50;;;17.00;;
9924;SDS011;5001;51.674;7.868;2024-03-25T00:06:33;18.73;;;16.87;;
9924;SDS011;5001;51.674;7.868;2024-03-25T00:09:00;18.47;;;16.57;;
9924;SDS011;5001;51.674;7.868;2024-03-25T00:11:29;18.07;;;16.23;;
9924;SDS011;5001;51.674;7.868;2024-03-25T00:13:55;18.30;;;16.50;;
9924;SDS011;5001;51.674;7.868;2024-03-25T00:16:21;21.70;;;16.90;;
9924;SDS011;5001;51.674;7.868;2024-03-25T00:18:48;56.73;;;32.03;;
9924;SDS011;5001;51.674;7.868;2024-03-25T00:21:14;22.80;;;18.40;;
9924;SDS011;5001;51.674;7.868;2024-03-25T00:23:40;22.13;;;17.77;;
9924;SDS011;5001;51.674;7.868;2024-03-25T00:26:06;18.37;;;16.60;;
9924;SDS011;5001;51.674;7.868;2024-03-25T00:28:32;24.27;;;17.23;;
9924;SDS011;5001;51.674;7.868;2024-03-25T00:30:59;22.77;;;16.63;;
9924;SDS011;5001;51.674;7.868;2024-03-25T00:33:25;19.83;;;16.27;;
9924;SDS011;5001;51.674;7.868;2024-03-25T00:35:51;17.27;;;15.60;;
9924;SDS011;5001;51.674;7.868;2024-03-25T00:38:18;18.97;;;16.03;;
9924;SDS011;5001;51.674;7.868;2024-03-25T00:40:44;18.90;;;16.63;;
9924;SDS011;5001;51.674;7.868;2024-03-25T00:43:10;18.37;;;16.23;;
9924;SDS011;5001;51.674;7.868;2024-03-25T00:45:37;25.03;;;16.53;;
9924;SDS011;5001;51.674;7.868;2024-03-25T00:48:03;19.43;;;16.77;;
9924;SDS011;5001;51.674;7.868;2024-03-25T00:50:30;24.93;;;16.73;;
9924;SDS011;5001;51.674;7.868;2024-03-25T00:52:56;23.87;;;17.23;;
9924;SDS011;5001;51.674;7.868;2024-03-25T00:55:22;18.13;;;16.50;;
9924;SDS011;5001;51.674;7.868;2024-03-25T00:57:48;21.93;;;17.50;;
9924;SDS011;5001;51.674;7.868;2024-03-25T01:00:15;18.40;;;16.53;;
9924;SDS011;5001;51.674;7.868;2024-03-25T01:02:41;27.70;;;16.57;;
9924;SDS011;5001;51.674;7.868;2024-03-25T01:05:08;20.23;;;17.10;;
9924;SDS011;5001;51.674;7.868;2024-03-25T01:07:34;22.00;;;16.80;;
9924;SDS011;5001;51.674;7.868;2024-03-25T01:10:01;21.67;;;16.93;;
9924;SDS011;5001;51.674;7.868;2024-03-25T01:12:27;18.73;;;16.77;;
9924;SDS011;5001;51.674;7.868;2024-03-25T01:14:53;18.97;;;16.90;;
9924;SDS011;5001;51.674;7.868;2024-03-25T01:17:19;18.10;;;16.70;;
9924;SDS011;5001;51.674;7.868;2024-03-25T01:19:45;19.83;;;16.60;;
9924;SDS011;5001;51.674;7.868;2024-03-25T01:22:11;19.17;;;17.23;;
9924;SDS011;5001;51.674;7.868;2024-03-25T01:24:37;18.57;;;16.73;;
9924;SDS011;5001;51.674;7.868;2024-03-25T01:27:03;17.83;;;16.43;;
9924;SDS011;5001;51.674;7.868;2024-03-25T01:29:29;18.07;;;16.20;;
9924;SDS011;5001;51.674;7.868;2024-03-25T01:31:55;21.67;;;16.77;;
9924;SDS011;5001;51.674;7.868;2024-03-25T01:34:24;18.13;;;16.47;;
9924;SDS011;5001;51.674;7.868;2024-03-25T01:36:51;19.17;;;16.77;;
9924;SDS011;5001;51.674;7.868;2024-03-25T01:39:18;18.43;;;16.60;;
9924;SDS011;5001;51.674;7.868;2024-03-25T01:41:44;19.50;;;16.77;;
9924;SDS011;5001;51.674;7.868;2024-03-25T01:44:10;24.00;;;17.00;;
9924;SDS011;5001;51.674;7.868;2024-03-25T01:46:37;18.27;;;16.67;;
9924;SDS011;5001;51.674;7.868;2024-03-25T01:49:04;18.27;;;16.60;;
9924;SDS011;5001;51.674;7.868;2024-03-25T01:51:30;19.30;;;17.33;;
9924;SDS011;5001;51.674;7.868;2024-03-25T01:53:57;17.70;;;16.10;;
9924;SDS011;5001;51.674;7.868;2024-03-25T01:56:25;19.73;;;17.50;;
9924;SDS011;5001;51.674;7.868;2024-03-25T01:58:52;24.40;;;19.30;;
9924;SDS011;5001;51.674;7.868;2024-03-25T02:01:18;18.33;;;16.43;;
9924;SDS011;5001;51.674;7.868;2024-03-25T02:03:45;16.43;;;15.07;;
9924;SDS011;5001;51.674;7.868;2024-03-25T02:06:12;17.33;;;15.83;;
9924;SDS011;5001;51.674;7.868;2024-03-25T02:08:40;29.17;;;17.83;;
9924;SDS011;5001;51.674;7.868;2024-03-25T02:11:07;17.87;;;15.97;;
9924;SDS011;5001;51.674;7.868;2024-03-25T02:13:35;24.43;;;17.40;;
9924;SDS011;5001;51.674;7.868;2024-03-25T02:16:01;26.40;;;17.67;;
9924;SDS011;5001;51.674;7.868;2024-03-25T02:18:28;19.07;;;16.87;;
9924;SDS011;5001;51.674;7.868;2024-03-25T02:20:56;18.33;;;16.73;;
9924;SDS011;5001;51.674;7.868;2024-03-25T02:23:26;19.97;;;15.93;;
9924;SDS011;5001;51.674;7.868;2024-03-25T02:25:52;20.07;;;15.90;;
9924;SDS011;5001;51.674;7.868;2024-03-25T02:28:19;19.03;;;15.60;;
9924;SDS011;5001;51.674;7.868;2024-03-25T02:30:46;16.73;;;15.27;;
9924;SDS011;5001;51.674;7.868;2024-03-25T02:33:12;17.47;;;15.20;;
9924;SDS011;5001;51.674;7.868;2024-03-25T02:35:39;17.53;;;15.77;;
9924;SDS011;5001;51.674;7.868;2024-03-25T02:38:07;16.50;;;15.30;;
9924;SDS011;5001;51.674;7.868;2024-03-25T02:40:34;18.30;;;15.70;;
9924;SDS011;5001;51.674;7.868;2024-03-25T02:43:01;16.77;;;15.30;;
9924;SDS011;5001;51.674;7.868;2024-03-25T02:45:28;17.63;;;15.10;;
9924;SDS011;5001;51.674;7.868;2024-03-25T02:47:54;16.27;;;14.57;;
9924;SDS011;5001;51.674;7.868;2024-03-25T02:50:21;17.67;;;14.53;;
9924;SDS011;5001;51.674;7.868;2024-03-25T02:52:47;17.23;;;15.27;;
9924;SDS011;5001;51.674;7.868;2024-03-25T02:55:13;20.03;;;15.40;;
9924;SDS011;5001;51.674;7.868;2024-03-25T02:57:39;15.13;;;13.90;;
9924;SDS011;5001;51.674;7.868;2024-03-25T03:00:05;17.43;;;14.70;;
9924;SDS011;5001;51.674;7.868;2024-03-25T03:06:15;20.63;;;15.07;;
9924;SDS011;5001;51.674;7.868;2024-03-25T03:08:41;16.83;;;15.07;;
9924;SDS011;5001;51.674;7.868;2024-03-25T03:11:07;17.70;;;15.77;;
9924;SDS011;5001;51.674;7.868;2024-03-25T03:13:33;17.60;;;15.70;;
9924;SDS011;5001;51.674;7.868;2024-03-25T03:15:59;17.53;;;15.93;;
9924;SDS011;5001;51.674;7.868;2024-03-25T03:18:25;17.40;;;15.67;;
9924;SDS011;5001;51.674;7.868;2024-03-25T03:20:51;20.00;;;16.03;;
9924;SDS011;5001;51.674;7.868;2024-03-25T03:23:21;17.30;;;15.63;;
9924;SDS011;5001;51.674;7.868;2024-03-25T03:25:48;18.83;;;16.60;;
9924;SDS011;5001;51.674;7.868;2024-03-25T03:28:14;17.67;;;16.03;;
9924;SDS011;5001;51.674;7.868;2024-03-25T03:30:41;18.57;;;16.60;;
9924;SDS011;5001;51.674;7.868;2024-03-25T03:33:07;17.67;;;15.87;;
9924;SDS011;5001;51.674;7.868;2024-03-25T03:35:33;19.90;;;17.03;;
9924;SDS011;5001;51.674;7.868;2024-03-25T03:37:59;18.63;;;16.40;;
9924;SDS011;5001;51.674;7.868;2024-03-25T03:40:25;17.90;;;16.17;;
9924;SDS011;5001;51.674;7.868;2024-03-25T03:42:52;17.47;;;15.73;;
9924;SDS011;5001;51.674;7.868;2024-03-25T03:45:18;25.23;;;16.60;;
9924;SDS011;5001;51.674;7.868;2024-03-25T03:47:44;19.10;;;15.83;;
9924;SDS011;5001;51.674;7.868;2024-03-25T03:50:09;17.53;;;15.77;;
9924;SDS011;5001;51.674;7.868;2024-03-25T03:52:35;17.73;;;15.70;;
9924;SDS011;5001;51.674;7.868;2024-03-25T03:55:01;19.23;;;15.47;;
9924;SDS011;5001;51.674;7.868;2024-03-25T03:57:27;16.90;;;15.60;;
9924;SDS011;5001;51.674;7.868;2024-03-25T03:59:53;18.63;;;16.60;;
9924;SDS011;5001;51.674;7.868;2024-03-25T04:02:20;20.53;;;18.53;;
9924;SDS011;5001;51.674;7.868;2024-03-25T04:04:46;27.23;;;19.17;;
9924;SDS011;5001;51.674;7.868;2024-03-25T04:07:12;24.30;;;18.43;;
9924;SDS011;5001;51.674;7.868;2024-03-25T04:09:38;24.40;;;18.57;;
9924;SDS011;5001;51.674;7.868;2024-03-25T04:12:04;21.27;;;19.13;;
9924;SDS011;5001;51.674;7.868;2024-03-25T04:14:31;30.93;;;19.40;;
9924;SDS011;5001;51.674;7.868;2024-03-25T04:16:58;20.80;;;18.40;;
9924;SDS011;5001;51.674;7.868;2024-03-25T04:19:24;22.33;;;20.10;;
9924;SDS011;5001;51.674;7.868;2024-03-25T04:21:51;31.93;;;19.00;;
9924;SDS011;5001;51.674;7.868;2024-03-25T04:24:18;29.00;;;20.10;;
9924;SDS011;5001;51.674;7.868;2024-03-25T04:26:44;22.73;;;20.03;;
9924;SDS011;5001;51.674;7.868;2024-03-25T04:29:11;29.83;;;20.50;;
9924;SDS011;5001;51.674;7.868;2024-03-25T04:31:37;22.93;;;20.20;;
9924;SDS011;5001;51.674;7.868;2024-03-25T04:34:03;22.77;;;19.53;;
9924;SDS011;5001;51.674;7.868;2024-03-25T04:36:30;29.40;;;19.50;;
9924;SDS011;5001;51.674;7.868;2024-03-25T04:38:56;25.67;;;20.60;;
9924;SDS011;5001;51.674;7.868;2024-03-25T04:41:22;28.23;;;21.10;;
9924;SDS011;5001;51.674;7.868;2024-03-25T04:43:48;29.73;;;21.33;;
9924;SDS011;5001;51.674;7.868;2024-03-25T04:46:14;31.90;;;20.70;;
9924;SDS011;5001;51.674;7.868;2024-03-25T04:48:40;30.80;;;21.20;;
9924;SDS011;5001;51.674;7.868;2024-03-25T04:51:07;35.07;;;21.53;;
9924;SDS011;5001;51.674;7.868;2024-03-25T04:53:34;28.03;;;21.20;;
9924;SDS011;5001;51.674;7.868;2024-03-25T04:56:00;25.33;;;21.17;;
9924;SDS011;5001;51.674;7.868;2024-03-25T04:58:26;25.83;;;21.37;;
9924;SDS011;5001;51.674;7.868;2024-03-25T05:00:52;34.13;;;21.70;;
9924;SDS011;5001;51.674;7.868;2024-03-25T05:03:19;30.93;;;20.90;;
9924;SDS011;5001;51.674;7.868;2024-03-25T05:05:45;23.13;;;19.97;;
9924;SDS011;5001;51.674;7.868;2024-03-25T05:08:11;26.37;;;19.87;;
9924;SDS011;5001;51.674;7.868;2024-03-25T05:10:37;27.03;;;20.57;;
9924;SDS011;5001;51.674;7.868;2024-03-25T05:13:03;28.63;;;19.67;;
9924;SDS011;5001;51.674;7.868;2024-03-25T05:15:29;32.30;;;20.50;;
9924;SDS011;5001;51.674;7.868;2024-03-25T05:17:58;38.40;;;20.30;;
9924;SDS011;5001;51.674;7.868;2024-03-25T05:20:23;28.50;;;20.57;;
9924;SDS011;5001;51.674;7.868;2024-03-25T05:22:52;30.07;;;20.60;;
9924;SDS011;5001;51.674;7.868;2024-03-25T05:25:18;44.77;;;21.73;;
9924;SDS011;5001;51.674;7.868;2024-03-25T05:27:43;26.27;;;21.53;;
9924;SDS011;5001;51.674;7.868;2024-03-25T05:30:10;27.23;;;23.13;;
9924;SDS011;5001;51.674;7.868;2024-03-25T05:32:36;41.90;;;23.57;;
9924;SDS011;5001;51.674;7.868;2024-03-25T05:35:02;32.00;;;23.37;;
9924;SDS011;5001;51.674;7.868;2024-03-25T05:37:28;29.67;;;21.87;;
9924;SDS011;5001;51.674;7.868;2024-03-25T05:39:58;33.57;;;22.70;;
9924;SDS011;5001;51.674;7.868;2024-03-25T05:42:24;27.00;;;22.87;;
9924;SDS011;5001;51.674;7.868;2024-03-25T05:44:50;33.57;;;23.87;;
9924;SDS011;5001;51.674;7.868;2024-03-25T05:47:16;28.10;;;23.73;;
9924;SDS011;5001;51.674;7.868;2024-03-25T05:49:42;38.70;;;25.03;;
9924;SDS011;5001;51.674;7.868;2024-03-25T05:52:08;38.77;;;24.77;;
9924;SDS011;5001;51.674;7.868;2024-03-25T05:54:34;34.70;;;25.27;;
9924;SDS011;5001;51.674;7.868;2024-03-25T05:57:00;45.97;;;24.93;;
9924;SDS011;5001;51.674;7.868;2024-03-25T05:59:26;36.40;;;25.50;;
9924;SDS011;5001;51.674;7.868;2024-03-25T06:01:52;96.60;;;52.27;;
9924;SDS011;5001;51.674;7.868;2024-03-25T06:04:18;49.20;;;27.33;;
9924;SDS011;5001;51.674;7.868;2024-03-25T06:06:45;28.70;;;23.60;;
9924;SDS011;5001;51.674;7.868;2024-03-25T06:09:11;37.63;;;25.10;;
9924;SDS011;5001;51.674;7.868;2024-03-25T06:11:37;34.50;;;24.13;;
9924;SDS011;5001;51.674;7.868;2024-03-25T06:14:03;28.27;;;22.87;;
9924;SDS011;5001;51.674;7.868;2024-03-25T06:16:29;35.27;;;22.10;;
9924;SDS011;5001;51.674;7.868;2024-03-25T06:18:55;30.57;;;21.73;;
9924;SDS011;5001;51.674;7.868;2024-03-25T06:21:21;29.80;;;21.13;;
9924;SDS011;5001;51.674;7.868;2024-03-25T06:23:48;54.27;;;31.33;;
9924;SDS011;5001;51.674;7.868;2024-03-25T06:26:14;34.83;;;25.67;;
9924;SDS011;5001;51.674;7.868;2024-03-25T06:28:41;34.33;;;23.17;;
9924;SDS011;5001;51.674;7.868;2024-03-25T06:31:08;25.00;;;22.17;;
9924;SDS011;5001;51.674;7.868;2024-03-25T06:33:52;23.27;;;21.10;;
9924;SDS011;5001;51.674;7.868;2024-03-25T06:36:37;30.10;;;21.70;;
9924;SDS011;5001;51.674;7.868;2024-03-25T06:39:03;26.47;;;23.20;;
9924;SDS011;5001;51.674;7.868;2024-03-25T06:41:29;31.77;;;23.27;;
9924;SDS011;5001;51.674;7.868;2024-03-25T06:43:55;33.57;;;24.53;;
9924;SDS011;5001;51.674;7.868;2024-03-25T06:46:21;30.00;;;21.67;;
9924;SDS011;5001;51.674;7.868;2024-03-25T06:48:47;26.30;;;22.30;;
9924;SDS011;5001;51.674;7.868;2024-03-25T06:51:13;28.57;;;21.83;;
9924;SDS011;5001;51.674;7.868;2024-03-25T06:53:39;31.13;;;22.73;;
9924;SDS011;5001;51.674;7.868;2024-03-25T06:56:05;24.33;;;21.53;;
9924;SDS011;5001;51.674;7.868;2024-03-25T06:58:31;30.97;;;22.77;;
9924;SDS011;5001;51.674;7.868;2024-03-25T07:01:03;27.07;;;21.87;;
9924;SDS011;5001;51.674;7.868;2024-03-25T07:03:37;22.57;;;20.43;;
9924;SDS011;5001;51.674;7.868;2024-03-25T07:06:04;27.43;;;21.23;;
9924;SDS011;5001;51.674;7.868;2024-03-25T07:08:30;22.50;;;20.37;;
9924;SDS011;5001;51.674;7.868;2024-03-25T07:10:57;23.23;;;20.80;;
9924;SDS011;5001;51.674;7.868;2024-03-25T07:13:23;22.47;;;20.23;;
9924;SDS011;5001;51.674;7.868;2024-03-25T07:15:51;23.33;;;19.83;;
9924;SDS011;5001;51.674;7.868;2024-03-25T07:18:18;26.70;;;21.87;;
9924;SDS011;5001;51.674;7.868;2024-03-25T07:20:44;22.70;;;20.13;;
9924;SDS011;5001;51.674;7.868;2024-03-25T07:23:10;21.88;;;19.33;;
9924;SDS011;5001;51.674;7.868;2024-03-25T07:25:36;25.52;;;20.17;;
9924;SDS011;5001;51.674;7.868;2024-03-25T07:28:03;28.08;;;20.98;;
9924;SDS011;5001;51.674;7.868;2024-03-25T07:30:30;27.67;;;21.03;;
9924;SDS011;5001;51.674;7.868;2024-03-25T07:32:57;24.90;;;22.07;;
9924;SDS011;5001;51.674;7.868;2024-03-25T07:35:25;23.37;;;20.90;;
9924;SDS011;5001;51.674;7.868;2024-03-25T07:37:52;26.27;;;21.23;;
9924;SDS011;5001;51.674;7.868;2024-03-25T07:40:18;22.93;;;20.60;;
9924;SDS011;5001;51.674;7.868;2024-03-25T07:42:44;25.73;;;21.10;;
9924;SDS011;5001;51.674;7.868;2024-03-25T07:45:10;25.30;;;21.20;;
9924;SDS011;5001;51.674;7.868;2024-03-25T07:47:36;23.40;;;21.00;;
9924;SDS011;5001;51.674;7.868;2024-03-25T07:50:03;29.20;;;21.60;;
9924;SDS011;5001;51.674;7.868;2024-03-25T07:52:31;23.93;;;20.90;;
9924;SDS011;5001;51.674;7.868;2024-03-25T07:54:57;22.27;;;19.87;;
9924;SDS011;5001;51.674;7.868;2024-03-25T07:57:23;23.40;;;20.80;;
9924;SDS011;5001;51.674;7.868;2024-03-25T07:59:49;29.87;;;20.67;;
9924;SDS011;5001;51.674;7.868;2024-03-25T08:02:15;22.30;;;20.00;;
9924;SDS011;5001;51.674;7.868;2024-03-25T08:04:42;26.43;;;19.77;;
9924;SDS011;5001;51.674;7.868;2024-03-25T08:07:08;32.70;;;21.00;;
9924;SDS011;5001;51.674;7.868;2024-03-25T08:09:34;22.33;;;20.13;;
9924;SDS011;5001;51.674;7.868;2024-03-25T08:12:00;26.20;;;20.30;;
9924;SDS011;5001;51.674;7.868;2024-03-25T08:14:26;22.50;;;20.17;;
9924;SDS011;5001;51.674;7.868;2024-03-25T08:16:52;27.23;;;20.87;;
9924;SDS011;5001;51.674;7.868;2024-03-25T08:19:18;24.93;;;19.83;;
9924;SDS011;5001;51.674;7.868;2024-03-25T08:21:44;22.37;;;20.20;;
9924;SDS011;5001;51.674;7.868;2024-03-25T08:24:10;26.30;;;19.60;;
9924;SDS011;5001;51.674;7.868;2024-03-25T08:26:37;28.97;;;20.33;;
9924;SDS011;5001;51.674;7.868;2024-03-25T08:29:03;24.27;;;19.37;;
9924;SDS011;5001;51.674;7.868;2024-03-25T08:31:29;23.77;;;19.57;;
9924;SDS011;5001;51.674;7.868;2024-03-25T08:33:55;24.97;;;19.60;;
9924;SDS011;5001;51.674;7.868;2024-03-25T08:36:21;23.23;;;19.60;;
9924;SDS011;5001;51.674;7.868;2024-03-25T08:38:47;21.73;;;19.55;;
9924;SDS011;5001;51.674;7.868;2024-03-25T08:41:13;24.13;;;19.80;;
9924;SDS011;5001;51.674;7.868;2024-03-25T08:43:40;21.52;;;19.33;;
9924;SDS011;5001;51.674;7.868;2024-03-25T08:46:06;23.00;;;20.13;;
9924;SDS011;5001;51.674;7.868;2024-03-25T08:48:32;21.70;;;19.42;;
9924;SDS011;5001;51.674;7.868;2024-03-25T08:50:58;22.77;;;19.58;;
9924;SDS011;5001;51.674;7.868;2024-03-25T08:53:24;22.77;;;19.33;;
9924;SDS011;5001;51.674;7.868;2024-03-25T08:55:50;21.45;;;19.42;;
9924;SDS011;5001;51.674;7.868;2024-03-25T08:58:16;22.02;;;19.67;;
9924;SDS011;5001;51.674;7.868;2024-03-25T09:00:42;21.50;;;19.35;;
9924;SDS011;5001;51.674;7.868;2024-03-25T09:03:09;24.45;;;19.88;;
9924;SDS011;5001;51.674;7.868;2024-03-25T09:05:36;23.20;;;20.20;;
9924;SDS011;5001;51.674;7.868;2024-03-25T09:08:08;22.88;;;20.38;;
9924;SDS011;5001;51.674;7.868;2024-03-25T09:10:37;23.52;;;20.20;;
9924;SDS011;5001;51.674;7.868;2024-03-25T09:13:22;23.40;;;20.30;;
9924;SDS011;5001;51.674;7.868;2024-03-25T09:15:49;22.92;;;19.98;;
9924;SDS011;5001;51.674;7.868;2024-03-25T09:18:19;23.20;;;19.90;;
9924;SDS011;5001;51.674;7.868;2024-03-25T09:20:45;21.70;;;19.55;;
9924;SDS011;5001;51.674;7.868;2024-03-25T09:23:11;22.02;;;19.83;;
9924;SDS011;5001;51.674;7.868;2024-03-25T09:25:38;27.83;;;20.38;;
9924;SDS011;5001;51.674;7.868;2024-03-25T09:28:04;22.85;;;20.50;;
9924;SDS011;5001;51.674;7.868;2024-03-25T09:30:32;22.38;;;20.27;;
9924;SDS011;5001;51.674;7.868;2024-03-25T09:32:58;26.02;;;20.98;;
9924;SDS011;5001;51.674;7.868;2024-03-25T09:35:23;24.50;;;20.08;;
9924;SDS011;5001;51.674;7.868;2024-03-25T09:37:49;22.15;;;20.05;;
9924;SDS011;5001;51.674;7.868;2024-03-25T09:40:15;22.88;;;20.05;;
9924;SDS011;5001;51.674;7.868;2024-03-25T09:42:49;21.33;;;19.23;;
9924;SDS011;5001;51.674;7.868;2024-03-25T09:45:17;21.13;;;19.02;;
9924;SDS011;5001;51.674;7.868;2024-03-25T09:47:45;20.30;;;18.60;;
9924;SDS011;5001;51.674;7.868;2024-03-25T09:50:12;20.37;;;18.73;;
9924;SDS011;5001;51.674;7.868;2024-03-25T09:52:53;24.37;;;19.27;;
9924;SDS011;5001;51.674;7.868;2024-03-25T09:55:21;22.20;;;18.92;;
9924;SDS011;5001;51.674;7.868;2024-03-25T09:57:48;23.95;;;19.38;;
9924;SDS011;5001;51.674;7.868;2024-03-25T10:00:14;21.10;;;19.10;;
9924;SDS011;5001;51.674;7.868;2024-03-25T10:02:41;21.33;;;19.55;;
9924;SDS011;5001;51.674;7.868;2024-03-25T10:05:08;22.73;;;19.40;;
9924;SDS011;5001;51.674;7.868;2024-03-25T10:07:34;22.42;;;20.30;;
9924;SDS011;5001;51.674;7.868;2024-03-25T10:10:04;22.60;;;20.50;;
9924;SDS011;5001;51.674;7.868;2024-03-25T10:12:31;23.65;;;21.20;;
9924;SDS011;5001;51.674;7.868;2024-03-25T10:14:58;24.95;;;21.80;;
9924;SDS011;5001;51.674;7.868;2024-03-25T10:17:25;23.90;;;21.70;;
9924;SDS011;5001;51.674;7.868;2024-03-25T10:19:53;23.27;;;21.10;;
9924;SDS011;5001;51.674;7.868;2024-03-25T10:22:19;23.02;;;20.92;;
9924;SDS011;5001;51.674;7.868;2024-03-25T10:24:47;23.17;;;20.98;;
9924;SDS011;5001;51.674;7.868;2024-03-25T10:27:20;24.02;;;21.50;;
9924;SDS011;5001;51.674;7.868;2024-03-25T10:29:47;27.90;;;22.13;;
9924;SDS011;5001;51.674;7.868;2024-03-25T10:32:14;23.88;;;21.70;;
9924;SDS011;5001;51.674;7.868;2024-03-25T10:34:40;23.13;;;21.23;;
9924;SDS011;5001;51.674;7.868;2024-03-25T10:37:10;25.13;;;22.58;;
9924;SDS011;5001;51.674;7.868;2024-03-25T10:39:43;24.08;;;21.85;;
9924;SDS011;5001;51.674;7.868;2024-03-25T10:42:13;24.80;;;22.20;;
9924;SDS011;5001;51.674;7.868;2024-03-25T10:44:43;23.13;;;21.00;;
9924;SDS011;5001;51.674;7.868;2024-03-25T10:47:10;24.40;;;22.08;;
9924;SDS011;5001;51.674;7.868;2024-03-25T10:49:49;24.85;;;21.73;;
9924;SDS011;5001;51.674;7.868;2024-03-25T10:52:21;24.85;;;22.25;;
9924;SDS011;5001;51.674;7.868;2024-03-25T10:54:49;24.13;;;21.63;;
9924;SDS011;5001;51.674;7.868;2024-03-25T10:57:16;25.00;;;22.45;;
9924;SDS011;5001;51.674;7.868;2024-03-25T10:59:42;24.88;;;22.33;;
9924;SDS011;5001;51.674;7.868;2024-03-25T11:02:10;22.90;;;20.83;;
9924;SDS011;5001;51.674;7.868;2024-03-25T11:04:37;23.25;;;21.23;;
9924;SDS011;5001;51.674;7.868;2024-03-25T11:07:13;25.85;;;22.50;;
9924;SDS011;5001;51.674;7.868;2024-03-25T11:09:40;23.70;;;21.55;;
9924;SDS011;5001;51.674;7.868;2024-03-25T11:12:11;23.15;;;21.08;;
9924;SDS011;5001;51.674;7.868;2024-03-25T11:14:40;22.83;;;20.80;;
9924;SDS011;5001;51.674;7.868;2024-03-25T11:17:16;23.35;;;21.27;;
9924;SDS011;5001;51.674;7.868;2024-03-25T11:19:42;25.35;;;20.85;;
9924;SDS011;5001;51.674;7.868;2024-03-25T11:22:08;23.00;;;20.85;;
9924;SDS011;5001;51.674;7.868;2024-03-25T11:24:35;23.33;;;20.92;;
9924;SDS011;5001;51.674;7.868;2024-03-25T11:27:05;22.98;;;20.98;;
9924;SDS011;5001;51.674;7.868;2024-03-25T11:29:33;23.20;;;20.83;;
9924;SDS011;5001;51.674;7.868;2024-03-25T11:31:59;23.17;;;21.17;;
9924;SDS011;5001;51.674;7.868;2024-03-25T11:34:29;22.92;;;20.92;;
9924;SDS011;5001;51.674;7.868;2024-03-25T11:36:56;23.98;;;21.60;;
9924;SDS011;5001;51.674;7.868;2024-03-25T11:39:23;22.95;;;20.95;;
9924;SDS011;5001;51.674;7.868;2024-03-25T11:42:10;23.85;;;21.45;;
9924;SDS011;5001;51.674;7.868;2024-03-25T11:45:22;23.27;;;21.13;;
9924;SDS011;5001;51.674;7.868;2024-03-25T11:48:28;22.85;;;20.90;;
9924;SDS011;5001;51.674;7.868;2024-03-25T11:51:50;24.42;;;22.05;;
9924;SDS011;5001;51.674;7.868;2024-03-25T11:55:16;24.00;;;21.65;;
9924;SDS011;5001;51.674;7.868;2024-03-25T11:58:38;23.70;;;21.45;;
9924;SDS011;5001;51.674;7.868;2024-03-25T12:02:00;23.63;;;21.52;;
9924;SDS011;5001;51.674;7.868;2024-03-25T12:05:23;23.27;;;21.20;;
9924;SDS011;5001;51.674;7.868;2024-03-25T12:08:44;24.20;;;21.58;;
9924;SDS011;5001;51.674;7.868;2024-03-25T13:35:11;22.87;;;20.97;;
9924;SDS011;5001;51.674;7.868;2024-03-25T13:37:37;22.87;;;20.97;;
9924;SDS011;5001;51.674;7.868;2024-03-25T13:40:03;25.33;;;20.67;;
9924;SDS011;5001;51.674;7.868;2024-03-25T13:42:31;23.00;;;20.83;;
9924;SDS011;5001;51.674;7.868;2024-03-25T13:44:57;23.57;;;21.33;;
9924;SDS011;5001;51.674;7.868;2024-03-25T13:47:23;23.73;;;21.23;;
9924;SDS011;5001;51.674;7.868;2024-03-25T13:49:49;24.03;;;21.87;;
9924;SDS011;5001;51.674;7.868;2024-03-25T13:52:25;24.30;;;22.20;;
9924;SDS011;5001;51.674;7.868;2024-03-25T13:54:52;23.73;;;21.53;;
9924;SDS011;5001;51.674;7.868;2024-03-25T13:57:18;25.77;;;23.20;;
9924;SDS011;5001;51.674;7.868;2024-03-25T13:59:44;24.60;;;22.00;;
9924;SDS011;5001;51.674;7.868;2024-03-25T14:02:10;24.47;;;22.27;;
9924;SDS011;5001;51.674;7.868;2024-03-25T14:04:36;24.33;;;21.93;;
9924;SDS011;5001;51.674;7.868;2024-03-25T14:07:02;24.50;;;22.40;;
9924;SDS011;5001;51.674;7.868;2024-03-25T14:09:28;23.87;;;21.67;;
9924;SDS011;5001;51.674;7.868;2024-03-25T14:11:54;23.97;;;21.70;;
9924;SDS011;5001;51.674;7.868;2024-03-25T14:14:20;24.47;;;22.10;;
9924;SDS011;5001;51.674;7.868;2024-03-25T14:16:46;25.37;;;22.87;;
9924;SDS011;5001;51.674;7.868;2024-03-25T14:19:12;23.97;;;21.60;;
9924;SDS011;5001;51.674;7.868;2024-03-25T14:21:38;23.80;;;21.50;;
9924;SDS011;5001;51.674;7.868;2024-03-25T14:24:04;24.50;;;21.67;;
9924;SDS011;5001;51.674;7.868;2024-03-25T14:26:31;23.23;;;21.00;;
9924;SDS011;5001;51.674;7.868;2024-03-25T14:28:57;23.90;;;21.50;;
9924;SDS011;5001;51.674;7.868;2024-03-25T14:31:25;24.20;;;21.53;;
9924;SDS011;5001;51.674;7.868;2024-03-25T14:33:53;23.43;;;21.23;;
9924;SDS011;5001;51.674;7.868;2024-03-25T14:36:19;23.00;;;20.97;;
9924;SDS011;5001;51.674;7.868;2024-03-25T14:38:45;24.93;;;21.27;;
9924;SDS011;5001;51.674;7.868;2024-03-25T14:41:11;23.57;;;21.27;;
9924;SDS011;5001;51.674;7.868;2024-03-25T14:43:39;24.00;;;21.20;;
9924;SDS011;5001;51.674;7.868;2024-03-25T14:46:05;23.53;;;21.30;;
9924;SDS011;5001;51.674;7.868;2024-03-25T14:48:31;22.83;;;20.83;;
9924;SDS011;5001;51.674;7.868;2024-03-25T14:50:57;23.03;;;20.97;;
9924;SDS011;5001;51.674;7.868;2024-03-25T14:53:25;23.77;;;21.63;;
9924;SDS011;5001;51.674;7.868;2024-03-25T14:55:51;23.80;;;21.70;;
9924;SDS011;5001;51.674;7.868;2024-03-25T14:58:17;23.30;;;21.27;;
9924;SDS011;5001;51.674;7.868;2024-03-25T15:00:43;23.43;;;21.43;;
9924;SDS011;5001;51.674;7.868;2024-03-25T15:03:09;23.00;;;20.80;;
9924;SDS011;5001;51.674;7.868;2024-03-25T15:05:36;23.40;;;21.30;;
9924;SDS011;5001;51.674;7.868;2024-03-25T15:08:02;22.93;;;20.97;;
9924;SDS011;5001;51.674;7.868;2024-03-25T15:10:29;23.47;;;21.17;;
9924;SDS011;5001;51.674;7.868;2024-03-25T15:13:02;23.27;;;21.17;;
9924;SDS011;5001;51.674;7.868;2024-03-25T15:15:28;23.40;;;21.27;;
9924;SDS011;5001;51.674;7.868;2024-03-25T15:17:59;23.67;;;21.37;;
9924;SDS011;5001;51.674;7.868;2024-03-25T15:20:25;22.90;;;20.90;;
9924;SDS011;5001;51.674;7.868;2024-03-25T15:22:51;23.73;;;21.47;;
9924;SDS011;5001;51.674;7.868;2024-03-25T15:25:17;22.67;;;20.77;;
9924;SDS011;5001;51.674;7.868;2024-03-25T15:27:44;23.50;;;21.13;;
9924;SDS011;5001;51.674;7.868;2024-03-25T15:30:11;23.90;;;21.57;;
9924;SDS011;5001;51.674;7.868;2024-03-25T15:32:37;24.40;;;21.60;;
9924;SDS011;5001;51.674;7.868;2024-03-25T15:35:03;25.00;;;21.23;;
9924;SDS011;5001;51.674;7.868;2024-03-25T15:37:29;23.57;;;21.23;;
9924;SDS011;5001;51.674;7.868;2024-03-25T15:39:55;23.93;;;21.50;;
9924;SDS011;5001;51.674;7.868;2024-03-25T15:42:21;23.50;;;21.33;;
9924;SDS011;5001;51.674;7.868;2024-03-25T15:44:51;26.70;;;23.90;;
9924;SDS011;5001;51.674;7.868;2024-03-25T15:47:20;24.23;;;21.87;;
9924;SDS011;5001;51.674;7.868;2024-03-25T15:49:46;23.37;;;21.27;;
9924;SDS011;5001;51.674;7.868;2024-03-25T15:52:13;24.17;;;21.77;;
9924;SDS011;5001;51.674;7.868;2024-03-25T15:54:39;24.00;;;21.57;;
9924;SDS011;5001;51.674;7.868;2024-03-25T15:57:05;23.63;;;21.40;;
9924;SDS011;5001;51.674;7.868;2024-03-25T15:59:32;23.60;;;21.27;;
9924;SDS011;5001;51.674;7.868;2024-03-25T16:01:59;23.10;;;21.00;;
9924;SDS011;5001;51.674;7.868;2024-03-25T16:04:25;23.07;;;20.90;;
9924;SDS011;5001;51.674;7.868;2024-03-25T16:06:51;23.63;;;21.03;;
9924;SDS011;5001;51.674;7.868;2024-03-25T16:09:17;22.30;;;20.37;;
9924;SDS011;5001;51.674;7.868;2024-03-25T16:11:44;23.93;;;20.87;;
9924;SDS011;5001;51.674;7.868;2024-03-25T16:14:10;22.83;;;20.57;;
9924;SDS011;5001;51.674;7.868;2024-03-25T16:16:42;22.87;;;20.83;;
9924;SDS011;5001;51.674;7.868;2024-03-25T16:19:08;22.40;;;20.43;;
9924;SDS011;5001;51.674;7.868;2024-03-25T16:21:34;22.53;;;20.50;;